Cora, Missouri
Current Conditions -  °F | °C
As of 3:55 AM on Sunday 26 Oct 2014 (Local Time) from KIRK Reporting Station
Clear Clear  
Wind Chill: 52°   Ceiling: Unl
Heat Index: 52°   Visibility: 10mi
Dew Point: 38°   Wind: 7mph
Humidity: 59%   Direction: 80°E
Pressure: 30.01"   Gusts: NA
Location:  40.1663°N, 93.1629°W
Report Text: KIRK 260855Z AUTO 08006KT 10SM CLR 11/03 A3001 RMK AO2 SLP163 T01110033 58009
Loading
Personal Weather Stations






























Interactive Weather Map
Tropical Storm Tracking
New forecast layout! Learn more

10-Day Weather Forecast

Advertisements
Track Severe Weather on mobile